sensor_id;sensor_type;location;lat;lon;timestamp;P1;durP1;ratioP1;P2;durP2;ratioP2
31347;SDS011;21711;49.708;18.568;2023-04-01T00:00:52;0.75;;;0.43;;
31347;SDS011;21711;49.708;18.568;2023-04-01T00:03:20;2.15;;;0.57;;
31347;SDS011;21711;49.708;18.568;2023-04-01T00:05:49;2.60;;;0.70;;
31347;SDS011;21711;49.708;18.568;2023-04-01T00:08:16;1.13;;;0.55;;
31347;SDS011;21711;49.708;18.568;2023-04-01T00:10:43;1.67;;;0.30;;
31347;SDS011;21711;49.708;18.568;2023-04-01T00:13:11;2.50;;;1.13;;
31347;SDS011;21711;49.708;18.568;2023-04-01T00:15:39;3.10;;;0.80;;
31347;SDS011;21711;49.708;18.568;2023-04-01T00:18:07;3.30;;;0.60;;
31347;SDS011;21711;49.708;18.568;2023-04-01T00:20:35;1.70;;;0.57;;
31347;SDS011;21711;49.708;18.568;2023-04-01T00:23:03;2.53;;;1.00;;
31347;SDS011;21711;49.708;18.568;2023-04-01T00:25:31;2.58;;;0.50;;
31347;SDS011;21711;49.708;18.568;2023-04-01T00:27:59;3.05;;;0.82;;
31347;SDS011;21711;49.708;18.568;2023-04-01T00:30:26;1.63;;;0.50;;
31347;SDS011;21711;49.708;18.568;2023-04-01T00:32:54;4.53;;;1.25;;
31347;SDS011;21711;49.708;18.568;2023-04-01T00:35:21;3.20;;;0.65;;
31347;SDS011;21711;49.708;18.568;2023-04-01T00:37:48;4.15;;;0.75;;
31347;SDS011;21711;49.708;18.568;2023-04-01T00:40:50;1.27;;;0.50;;
31347;SDS011;21711;49.708;18.568;2023-04-01T00:43:17;2.72;;;0.80;;
31347;SDS011;21711;49.708;18.568;2023-04-01T00:45:47;5.63;;;0.68;;
31347;SDS011;21711;49.708;18.568;2023-04-01T00:53:34;4.38;;;1.38;;
31347;SDS011;21711;49.708;18.568;2023-04-01T00:56:12;3.50;;;0.57;;
31347;SDS011;21711;49.708;18.568;2023-04-01T00:58:50;4.50;;;0.70;;
31347;SDS011;21711;49.708;18.568;2023-04-01T01:01:24;1.35;;;0.50;;
31347;SDS011;21711;49.708;18.568;2023-04-01T01:03:54;3.00;;;0.68;;
31347;SDS011;21711;49.708;18.568;2023-04-01T01:12:29;2.30;;;0.47;;
31347;SDS011;21711;49.708;18.568;2023-04-01T01:18:19;2.35;;;0.90;;
31347;SDS011;21711;49.708;18.568;2023-04-01T01:27:10;2.78;;;0.55;;
31347;SDS011;21711;49.708;18.568;2023-04-01T01:35:43;3.45;;;0.68;;
31347;SDS011;21711;49.708;18.568;2023-04-01T01:38:24;3.55;;;1.35;;
31347;SDS011;21711;49.708;18.568;2023-04-01T01:41:03;7.00;;;1.03;;
31347;SDS011;21711;49.708;18.568;2023-04-01T01:43:35;1.67;;;0.65;;
31347;SDS011;21711;49.708;18.568;2023-04-01T01:46:14;2.03;;;0.60;;
31347;SDS011;21711;49.708;18.568;2023-04-01T01:48:47;8.25;;;2.00;;
31347;SDS011;21711;49.708;18.568;2023-04-01T01:51:18;1.23;;;0.30;;
31347;SDS011;21711;49.708;18.568;2023-04-01T01:53:48;0.95;;;0.50;;
31347;SDS011;21711;49.708;18.568;2023-04-01T01:56:17;2.58;;;0.70;;
31347;SDS011;21711;49.708;18.568;2023-04-01T01:58:49;6.88;;;1.40;;
31347;SDS011;21711;49.708;18.568;2023-04-01T02:01:48;2.20;;;0.47;;
31347;SDS011;21711;49.708;18.568;2023-04-01T02:04:18;2.35;;;0.63;;
31347;SDS011;21711;49.708;18.568;2023-04-01T02:06:50;4.93;;;0.80;;
31347;SDS011;21711;49.708;18.568;2023-04-01T02:09:27;3.85;;;0.80;;
31347;SDS011;21711;49.708;18.568;2023-04-01T02:11:59;2.22;;;0.60;;
31347;SDS011;21711;49.708;18.568;2023-04-01T02:17:32;1.70;;;0.43;;
31347;SDS011;21711;49.708;18.568;2023-04-01T02:20:04;1.60;;;0.70;;
31347;SDS011;21711;49.708;18.568;2023-04-01T02:22:42;2.72;;;0.60;;
31347;SDS011;21711;49.708;18.568;2023-04-01T02:25:23;2.00;;;0.60;;
31347;SDS011;21711;49.708;18.568;2023-04-01T02:28:00;1.30;;;0.38;;
31347;SDS011;21711;49.708;18.568;2023-04-01T02:30:31;1.42;;;0.47;;
31347;SDS011;21711;49.708;18.568;2023-04-01T02:33:02;3.03;;;0.70;;
31347;SDS011;21711;49.708;18.568;2023-04-01T02:35:32;1.57;;;0.70;;
31347;SDS011;21711;49.708;18.568;2023-04-01T02:38:03;3.70;;;0.55;;
31347;SDS011;21711;49.708;18.568;2023-04-01T02:40:46;2.75;;;0.75;;
31347;SDS011;21711;49.708;18.568;2023-04-01T02:43:16;1.77;;;0.43;;
31347;SDS011;21711;49.708;18.568;2023-04-01T02:45:46;1.38;;;0.40;;
31347;SDS011;21711;49.708;18.568;2023-04-01T02:48:13;2.33;;;0.50;;
31347;SDS011;21711;49.708;18.568;2023-04-01T02:50:40;3.30;;;0.70;;
31347;SDS011;21711;49.708;18.568;2023-04-01T02:53:08;4.68;;;0.65;;
31347;SDS011;21711;49.708;18.568;2023-04-01T02:55:35;1.45;;;0.70;;
31347;SDS011;21711;49.708;18.568;2023-04-01T02:58:02;1.38;;;0.65;;
31347;SDS011;21711;49.708;18.568;2023-04-01T03:00:31;3.95;;;0.80;;
31347;SDS011;21711;49.708;18.568;2023-04-01T03:02:58;1.13;;;0.47;;
31347;SDS011;21711;49.708;18.568;2023-04-01T03:05:26;4.45;;;0.73;;
31347;SDS011;21711;49.708;18.568;2023-04-01T03:07:53;3.35;;;0.80;;
31347;SDS011;21711;49.708;18.568;2023-04-01T03:10:22;3.78;;;0.73;;
31347;SDS011;21711;49.708;18.568;2023-04-01T03:12:49;5.63;;;0.80;;
31347;SDS011;21711;49.708;18.568;2023-04-01T03:15:16;3.45;;;0.68;;
31347;SDS011;21711;49.708;18.568;2023-04-01T03:17:43;5.90;;;0.70;;
31347;SDS011;21711;49.708;18.568;2023-04-01T03:20:13;4.18;;;1.00;;
31347;SDS011;21711;49.708;18.568;2023-04-01T03:22:41;2.03;;;0.75;;
31347;SDS011;21711;49.708;18.568;2023-04-01T03:25:09;3.10;;;0.75;;
31347;SDS011;21711;49.708;18.568;2023-04-01T03:27:37;2.15;;;0.65;;
31347;SDS011;21711;49.708;18.568;2023-04-01T03:30:06;6.40;;;1.05;;
31347;SDS011;21711;49.708;18.568;2023-04-01T03:32:40;3.58;;;1.08;;
31347;SDS011;21711;49.708;18.568;2023-04-01T03:35:08;2.42;;;0.43;;
31347;SDS011;21711;49.708;18.568;2023-04-01T03:37:36;1.65;;;0.50;;
31347;SDS011;21711;49.708;18.568;2023-04-01T03:40:04;1.75;;;1.15;;
31347;SDS011;21711;49.708;18.568;2023-04-01T03:42:32;2.45;;;0.50;;
31347;SDS011;21711;49.708;18.568;2023-04-01T03:45:00;2.50;;;0.85;;
31347;SDS011;21711;49.708;18.568;2023-04-01T03:47:28;2.13;;;0.52;;
31347;SDS011;21711;49.708;18.568;2023-04-01T03:49:56;2.85;;;0.70;;
31347;SDS011;21711;49.708;18.568;2023-04-01T03:52:24;3.38;;;0.50;;
31347;SDS011;21711;49.708;18.568;2023-04-01T03:54:52;5.63;;;1.15;;
31347;SDS011;21711;49.708;18.568;2023-04-01T03:57:20;3.08;;;0.60;;
31347;SDS011;21711;49.708;18.568;2023-04-01T03:59:47;2.28;;;0.50;;
31347;SDS011;21711;49.708;18.568;2023-04-01T04:02:14;4.88;;;1.00;;
31347;SDS011;21711;49.708;18.568;2023-04-01T04:04:42;2.92;;;0.60;;
31347;SDS011;21711;49.708;18.568;2023-04-01T04:07:10;1.77;;;0.90;;
31347;SDS011;21711;49.708;18.568;2023-04-01T04:09:56;6.85;;;0.82;;
31347;SDS011;21711;49.708;18.568;2023-04-01T04:12:23;2.40;;;0.70;;
31347;SDS011;21711;49.708;18.568;2023-04-01T04:14:51;2.22;;;0.95;;
31347;SDS011;21711;49.708;18.568;2023-04-01T04:17:18;3.13;;;0.93;;
31347;SDS011;21711;49.708;18.568;2023-04-01T04:19:45;3.42;;;1.30;;
31347;SDS011;21711;49.708;18.568;2023-04-01T04:22:13;1.60;;;0.80;;
31347;SDS011;21711;49.708;18.568;2023-04-01T04:24:40;4.60;;;1.33;;
31347;SDS011;21711;49.708;18.568;2023-04-01T04:27:11;2.72;;;0.90;;
31347;SDS011;21711;49.708;18.568;2023-04-01T04:29:59;6.28;;;1.38;;
31347;SDS011;21711;49.708;18.568;2023-04-01T04:32:26;4.88;;;1.38;;
31347;SDS011;21711;49.708;18.568;2023-04-01T04:34:55;2.78;;;1.10;;
31347;SDS011;21711;49.708;18.568;2023-04-01T04:37:22;3.95;;;1.60;;
31347;SDS011;21711;49.708;18.568;2023-04-01T04:39:50;4.88;;;1.00;;
31347;SDS011;21711;49.708;18.568;2023-04-01T04:42:17;2.17;;;0.80;;
31347;SDS011;21711;49.708;18.568;2023-04-01T04:44:45;4.40;;;1.05;;
31347;SDS011;21711;49.708;18.568;2023-04-01T04:47:12;2.42;;;0.75;;
31347;SDS011;21711;49.708;18.568;2023-04-01T04:49:40;2.03;;;0.55;;
31347;SDS011;21711;49.708;18.568;2023-04-01T04:52:08;5.35;;;0.77;;
31347;SDS011;21711;49.708;18.568;2023-04-01T04:54:36;2.30;;;0.80;;
31347;SDS011;21711;49.708;18.568;2023-04-01T04:57:04;1.33;;;0.57;;
31347;SDS011;21711;49.708;18.568;2023-04-01T04:59:38;3.58;;;0.88;;
31347;SDS011;21711;49.708;18.568;2023-04-01T05:02:11;3.85;;;0.98;;
31347;SDS011;21711;49.708;18.568;2023-04-01T05:04:38;1.90;;;0.70;;
31347;SDS011;21711;49.708;18.568;2023-04-01T05:07:08;3.97;;;0.70;;
31347;SDS011;21711;49.708;18.568;2023-04-01T05:09:36;3.15;;;0.80;;
31347;SDS011;21711;49.708;18.568;2023-04-01T05:12:03;1.83;;;0.52;;
31347;SDS011;21711;49.708;18.568;2023-04-01T05:14:51;2.85;;;0.80;;
31347;SDS011;21711;49.708;18.568;2023-04-01T05:17:19;2.58;;;1.08;;
31347;SDS011;21711;49.708;18.568;2023-04-01T05:19:46;1.25;;;0.60;;
31347;SDS011;21711;49.708;18.568;2023-04-01T05:22:14;3.15;;;0.80;;
31347;SDS011;21711;49.708;18.568;2023-04-01T05:24:42;2.28;;;0.70;;
31347;SDS011;21711;49.708;18.568;2023-04-01T05:27:10;2.35;;;0.73;;
31347;SDS011;21711;49.708;18.568;2023-04-01T05:29:39;3.25;;;0.73;;
31347;SDS011;21711;49.708;18.568;2023-04-01T05:32:13;1.38;;;0.60;;
31347;SDS011;21711;49.708;18.568;2023-04-01T05:34:41;5.82;;;0.90;;
31347;SDS011;21711;49.708;18.568;2023-04-01T05:37:09;2.42;;;0.95;;
31347;SDS011;21711;49.708;18.568;2023-04-01T05:39:37;2.55;;;0.70;;
31347;SDS011;21711;49.708;18.568;2023-04-01T05:42:06;3.00;;;0.70;;
31347;SDS011;21711;49.708;18.568;2023-04-01T05:44:34;2.67;;;0.70;;
31347;SDS011;21711;49.708;18.568;2023-04-01T05:47:05;2.05;;;0.88;;
31347;SDS011;21711;49.708;18.568;2023-04-01T05:49:33;5.15;;;1.15;;
31347;SDS011;21711;49.708;18.568;2023-04-01T05:52:01;1.83;;;0.70;;
31347;SDS011;21711;49.708;18.568;2023-04-01T05:54:30;3.72;;;0.70;;
31347;SDS011;21711;49.708;18.568;2023-04-01T05:56:57;3.33;;;0.73;;
31347;SDS011;21711;49.708;18.568;2023-04-01T05:59:24;3.08;;;0.77;;
31347;SDS011;21711;49.708;18.568;2023-04-01T06:01:52;4.35;;;0.82;;
31347;SDS011;21711;49.708;18.568;2023-04-01T06:04:19;2.80;;;0.80;;
31347;SDS011;21711;49.708;18.568;2023-04-01T06:06:47;3.45;;;0.95;;
31347;SDS011;21711;49.708;18.568;2023-04-01T06:09:15;1.95;;;0.50;;
31347;SDS011;21711;49.708;18.568;2023-04-01T06:11:57;1.57;;;0.57;;
31347;SDS011;21711;49.708;18.568;2023-04-01T06:15:25;3.20;;;0.70;;
31347;SDS011;21711;49.708;18.568;2023-04-01T06:18:46;2.10;;;0.70;;
31347;SDS011;21711;49.708;18.568;2023-04-01T06:28:27;3.80;;;0.80;;
31347;SDS011;21711;49.708;18.568;2023-04-01T06:33:43;1.35;;;0.40;;
31347;SDS011;21711;49.708;18.568;2023-04-01T06:36:47;2.15;;;0.52;;
31347;SDS011;21711;49.708;18.568;2023-04-01T06:40:06;1.55;;;0.47;;
31347;SDS011;21711;49.708;18.568;2023-04-01T06:43:05;3.22;;;0.80;;
31347;SDS011;21711;49.708;18.568;2023-04-01T06:53:17;3.55;;;0.63;;
31347;SDS011;21711;49.708;18.568;2023-04-01T06:56:14;2.38;;;0.63;;
31347;SDS011;21711;49.708;18.568;2023-04-01T06:59:20;2.67;;;0.50;;
31347;SDS011;21711;49.708;18.568;2023-04-01T07:04:53;2.73;;;1.00;;
31347;SDS011;21711;49.708;18.568;2023-04-01T07:10:11;4.90;;;1.40;;
31347;SDS011;21711;49.708;18.568;2023-04-01T07:13:27;4.13;;;1.25;;
31347;SDS011;21711;49.708;18.568;2023-04-01T07:22:14;2.13;;;0.80;;
31347;SDS011;21711;49.708;18.568;2023-04-01T07:25:34;2.38;;;0.82;;
31347;SDS011;21711;49.708;18.568;2023-04-01T07:28:26;1.73;;;0.77;;
31347;SDS011;21711;49.708;18.568;2023-04-01T07:31:20;1.63;;;0.80;;
31347;SDS011;21711;49.708;18.568;2023-04-01T07:34:40;3.72;;;1.65;;
31347;SDS011;21711;49.708;18.568;2023-04-01T07:37:50;2.17;;;0.80;;
31347;SDS011;21711;49.708;18.568;2023-04-01T07:49:49;1.98;;;1.17;;
31347;SDS011;21711;49.708;18.568;2023-04-01T08:11:21;1.27;;;0.50;;
31347;SDS011;21711;49.708;18.568;2023-04-01T08:17:58;1.55;;;0.68;;
31347;SDS011;21711;49.708;18.568;2023-04-01T08:21:20;1.92;;;0.95;;
31347;SDS011;21711;49.708;18.568;2023-04-01T08:23:37;2.20;;;1.00;;
31347;SDS011;21711;49.708;18.568;2023-04-01T08:29:04;1.55;;;0.80;;
31347;SDS011;21711;49.708;18.568;2023-04-01T08:31:51;1.38;;;0.90;;
31347;SDS011;21711;49.708;18.568;2023-04-01T08:37:42;1.52;;;0.80;;
31347;SDS011;21711;49.708;18.568;2023-04-01T08:43:27;1.40;;;0.73;;
31347;SDS011;21711;49.708;18.568;2023-04-01T08:46:47;1.75;;;0.57;;
31347;SDS011;21711;49.708;18.568;2023-04-01T08:49:45;2.38;;;1.05;;
31347;SDS011;21711;49.708;18.568;2023-04-01T08:53:09;1.58;;;0.70;;
31347;SDS011;21711;49.708;18.568;2023-04-01T09:08:31;5.47;;;1.80;;
31347;SDS011;21711;49.708;18.568;2023-04-01T09:27:38;2.72;;;1.20;;
31347;SDS011;21711;49.708;18.568;2023-04-01T09:41:44;1.65;;;0.80;;
31347;SDS011;21711;49.708;18.568;2023-04-01T09:44:36;0.77;;;0.70;;
31347;SDS011;21711;49.708;18.568;2023-04-01T09:56:23;1.20;;;0.90;;
31347;SDS011;21711;49.708;18.568;2023-04-01T10:45:08;2.22;;;1.17;;
31347;SDS011;21711;49.708;18.568;2023-04-01T10:48:12;4.18;;;1.45;;
31347;SDS011;21711;49.708;18.568;2023-04-01T10:56:34;3.45;;;1.35;;
31347;SDS011;21711;49.708;18.568;2023-04-01T11:06:22;1.73;;;1.00;;
31347;SDS011;21711;49.708;18.568;2023-04-01T11:25:09;1.60;;;0.60;;
31347;SDS011;21711;49.708;18.568;2023-04-01T11:29:12;3.13;;;0.77;;
31347;SDS011;21711;49.708;18.568;2023-04-01T11:31:35;3.28;;;1.42;;
31347;SDS011;21711;49.708;18.568;2023-04-01T11:37:27;1.70;;;0.80;;
31347;SDS011;21711;49.708;18.568;2023-04-01T11:44:58;1.40;;;0.82;;
31347;SDS011;21711;49.708;18.568;2023-04-01T11:47:58;2.53;;;0.75;;
31347;SDS011;21711;49.708;18.568;2023-04-01T12:08:13;6.20;;;0.77;;
31347;SDS011;21711;49.708;18.568;2023-04-01T12:11:14;1.67;;;1.10;;
31347;SDS011;21711;49.708;18.568;2023-04-01T12:13:51;2.80;;;0.95;;
31347;SDS011;21711;49.708;18.568;2023-04-01T12:19:19;3.85;;;1.50;;
31347;SDS011;21711;49.708;18.568;2023-04-01T12:25:48;4.03;;;1.33;;
31347;SDS011;21711;49.708;18.568;2023-04-01T12:28:25;4.95;;;1.10;;
31347;SDS011;21711;49.708;18.568;2023-04-01T12:54:48;2.05;;;0.57;;
31347;SDS011;21711;49.708;18.568;2023-04-01T12:57:58;4.10;;;0.90;;
31347;SDS011;21711;49.708;18.568;2023-04-01T13:22:41;2.58;;;0.57;;
31347;SDS011;21711;49.708;18.568;2023-04-01T13:33:45;5.25;;;1.48;;
31347;SDS011;21711;49.708;18.568;2023-04-01T13:36:26;3.22;;;1.23;;
31347;SDS011;21711;49.708;18.568;2023-04-01T13:45:19;3.08;;;0.75;;
31347;SDS011;21711;49.708;18.568;2023-04-01T13:51:35;2.00;;;0.70;;
31347;SDS011;21711;49.708;18.568;2023-04-01T14:07:00;3.63;;;0.75;;
31347;SDS011;21711;49.708;18.568;2023-04-01T14:10:14;1.70;;;1.10;;
31347;SDS011;21711;49.708;18.568;2023-04-01T14:24:22;1.98;;;0.50;;
31347;SDS011;21711;49.708;18.568;2023-04-01T14:33:21;2.40;;;0.85;;
31347;SDS011;21711;49.708;18.568;2023-04-01T14:36:41;2.25;;;0.60;;
31347;SDS011;21711;49.708;18.568;2023-04-01T14:47:15;1.60;;;0.73;;
31347;SDS011;21711;49.708;18.568;2023-04-01T14:49:46;2.33;;;1.20;;
31347;SDS011;21711;49.708;18.568;2023-04-01T14:52:40;2.50;;;0.65;;
31347;SDS011;21711;49.708;18.568;2023-04-01T14:55:33;1.42;;;0.80;;
31347;SDS011;21711;49.708;18.568;2023-04-01T15:00:48;1.40;;;0.63;;
31347;SDS011;21711;49.708;18.568;2023-04-01T15:03:33;1.00;;;0.60;;
31347;SDS011;21711;49.708;18.568;2023-04-01T15:06:20;1.73;;;0.50;;
31347;SDS011;21711;49.708;18.568;2023-04-01T15:15:15;1.38;;;0.90;;
31347;SDS011;21711;49.708;18.568;2023-04-01T15:18:08;1.08;;;0.38;;
31347;SDS011;21711;49.708;18.568;2023-04-01T15:20:50;0.90;;;0.40;;
31347;SDS011;21711;49.708;18.568;2023-04-01T15:26:32;1.20;;;0.40;;
31347;SDS011;21711;49.708;18.568;2023-04-01T15:40:49;1.88;;;0.93;;
31347;SDS011;21711;49.708;18.568;2023-04-01T15:43:48;2.17;;;0.90;;
31347;SDS011;21711;49.708;18.568;2023-04-01T15:57:22;2.70;;;0.90;;
31347;SDS011;21711;49.708;18.568;2023-04-01T16:02:48;2.28;;;1.00;;
31347;SDS011;21711;49.708;18.568;2023-04-01T16:17:25;45.60;;;12.45;;
31347;SDS011;21711;49.708;18.568;2023-04-01T16:25:58;35.17;;;14.02;;
31347;SDS011;21711;49.708;18.568;2023-04-01T16:34:30;1.98;;;0.93;;
31347;SDS011;21711;49.708;18.568;2023-04-01T16:40:09;3.42;;;1.13;;
31347;SDS011;21711;49.708;18.568;2023-04-01T16:54:28;3.10;;;1.27;;
31347;SDS011;21711;49.708;18.568;2023-04-01T16:57:17;2.72;;;1.35;;
31347;SDS011;21711;49.708;18.568;2023-04-01T16:59:55;4.20;;;1.13;;
31347;SDS011;21711;49.708;18.568;2023-04-01T17:13:59;6.45;;;1.58;;
31347;SDS011;21711;49.708;18.568;2023-04-01T17:22:55;2.00;;;0.93;;
31347;SDS011;21711;49.708;18.568;2023-04-01T17:31:01;1.65;;;1.10;;
31347;SDS011;21711;49.708;18.568;2023-04-01T17:36:42;1.98;;;1.27;;
31347;SDS011;21711;49.708;18.568;2023-04-01T17:39:57;1.92;;;0.93;;
31347;SDS011;21711;49.708;18.568;2023-04-01T18:23:30;3.85;;;1.25;;
31347;SDS011;21711;49.708;18.568;2023-04-01T18:26:32;3.67;;;1.33;;
31347;SDS011;21711;49.708;18.568;2023-04-01T18:31:46;4.10;;;1.88;;
31347;SDS011;21711;49.708;18.568;2023-04-01T18:34:36;5.35;;;1.30;;
31347;SDS011;21711;49.708;18.568;2023-04-01T18:37:25;3.27;;;1.63;;
31347;SDS011;21711;49.708;18.568;2023-04-01T18:40:10;5.18;;;1.67;;
31347;SDS011;21711;49.708;18.568;2023-04-01T18:42:53;3.13;;;1.10;;
31347;SDS011;21711;49.708;18.568;2023-04-01T18:46:01;3.80;;;1.63;;
31347;SDS011;21711;49.708;18.568;2023-04-01T18:49:13;5.82;;;1.77;;
31347;SDS011;21711;49.708;18.568;2023-04-01T18:57:41;3.78;;;1.40;;
31347;SDS011;21711;49.708;18.568;2023-04-01T19:00:25;5.03;;;1.55;;
31347;SDS011;21711;49.708;18.568;2023-04-01T19:03:16;3.83;;;1.63;;
31347;SDS011;21711;49.708;18.568;2023-04-01T19:05:59;3.70;;;1.10;;
31347;SDS011;21711;49.708;18.568;2023-04-01T19:08:40;2.92;;;1.15;;
31347;SDS011;21711;49.708;18.568;2023-04-01T19:26:00;2.83;;;0.88;;
31347;SDS011;21711;49.708;18.568;2023-04-01T19:28:59;4.20;;;1.40;;
31347;SDS011;21711;49.708;18.568;2023-04-01T19:32:21;3.05;;;1.58;;
31347;SDS011;21711;49.708;18.568;2023-04-01T19:38:31;3.20;;;1.40;;
31347;SDS011;21711;49.708;18.568;2023-04-01T19:41:18;6.68;;;1.67;;
31347;SDS011;21711;49.708;18.568;2023-04-01T19:43:59;4.32;;;1.95;;
31347;SDS011;21711;49.708;18.568;2023-04-01T19:53:42;5.05;;;2.35;;
31347;SDS011;21711;49.708;18.568;2023-04-01T19:56:38;4.15;;;2.30;;
31347;SDS011;21711;49.708;18.568;2023-04-01T19:59:30;5.32;;;2.22;;
31347;SDS011;21711;49.708;18.568;2023-04-01T20:25:18;7.70;;;2.83;;
31347;SDS011;21711;49.708;18.568;2023-04-01T20:36:45;4.03;;;2.50;;
31347;SDS011;21711;49.708;18.568;2023-04-01T20:43:28;4.88;;;2.95;;
31347;SDS011;21711;49.708;18.568;2023-04-01T20:46:20;7.57;;;3.25;;
31347;SDS011;21711;49.708;18.568;2023-04-01T20:49:15;6.80;;;3.15;;
31347;SDS011;21711;49.708;18.568;2023-04-01T20:57:32;9.05;;;4.68;;
31347;SDS011;21711;49.708;18.568;2023-04-01T21:11:48;6.88;;;4.22;;
31347;SDS011;21711;49.708;18.568;2023-04-01T21:26:43;9.18;;;3.85;;
31347;SDS011;21711;49.708;18.568;2023-04-01T21:30:05;6.20;;;3.77;;
31347;SDS011;21711;49.708;18.568;2023-04-01T21:58:59;10.05;;;4.13;;
31347;SDS011;21711;49.708;18.568;2023-04-01T22:13:46;6.32;;;3.10;;
31347;SDS011;21711;49.708;18.568;2023-04-01T22:20:27;11.45;;;4.90;;
31347;SDS011;21711;49.708;18.568;2023-04-01T22:26:06;7.53;;;4.20;;
31347;SDS011;21711;49.708;18.568;2023-04-01T22:34:25;4.78;;;2.95;;
31347;SDS011;21711;49.708;18.568;2023-04-01T22:37:12;4.43;;;2.20;;
31347;SDS011;21711;49.708;18.568;2023-04-01T22:42:56;7.30;;;3.17;;
31347;SDS011;21711;49.708;18.568;2023-04-01T22:45:52;4.50;;;3.10;;
31347;SDS011;21711;49.708;18.568;2023-04-01T22:48:55;6.18;;;2.78;;
31347;SDS011;21711;49.708;18.568;2023-04-01T22:51:47;7.28;;;3.47;;
31347;SDS011;21711;49.708;18.568;2023-04-01T22:54:50;5.85;;;2.80;;
31347;SDS011;21711;49.708;18.568;2023-04-01T22:57:40;5.25;;;3.22;;
31347;SDS011;21711;49.708;18.568;2023-04-01T23:00:26;4.38;;;2.80;;
31347;SDS011;21711;49.708;18.568;2023-04-01T23:05:51;4.90;;;2.97;;
31347;SDS011;21711;49.708;18.568;2023-04-01T23:08:30;5.45;;;3.25;;
31347;SDS011;21711;49.708;18.568;2023-04-01T23:17:22;6.57;;;3.22;;
31347;SDS011;21711;49.708;18.568;2023-04-01T23:29:02;5.80;;;3.40;;
31347;SDS011;21711;49.708;18.568;2023-04-01T23:31:39;5.57;;;3.10;;
31347;SDS011;21711;49.708;18.568;2023-04-01T23:36:49;6.78;;;3.22;;
31347;SDS011;21711;49.708;18.568;2023-04-01T23:41:59;6.68;;;3.05;;
31347;SDS011;21711;49.708;18.568;2023-04-01T23:44:43;6.25;;;3.20;;
31347;SDS011;21711;49.708;18.568;2023-04-01T23:47:14;6.07;;;3.33;;
31347;SDS011;21711;49.708;18.568;2023-04-01T23:49:58;7.57;;;3.17;;
31347;SDS011;21711;49.708;18.568;2023-04-01T23:52:40;6.63;;;3.47;;
31347;SDS011;21711;49.708;18.568;2023-04-01T23:55:13;6.78;;;3.70;;
